Time;durP1;ratioP1;P1;durP2;ratioP2;P2;SDS_P1;SDS_P2;PMS_P1;PMS_P2;Temp;Humidity;BMP_temperature;BMP_pressure;BME280_temperature;BME280_humidity;BME280_pressure;Samples;Min_cycle;Max_cycle;Signal;HPM_P1;HPM_P2
2023/04/29 00:01:51;;;;;;;1.50;1.40;;;;;;;;;;4938095;29;20031;-87
2023/04/29 00:04:17;;;;;;;1.92;1.63;;;;;;;;;;4955186;29;20035;-87
2023/04/29 00:06:42;;;;;;;1.42;1.33;;;;;;;;;;4937849;29;20031;-86
2023/04/29 00:09:07;;;;;;;5.05;1.77;;;;;;;;;;4938106;29;20047;-86
2023/04/29 00:11:33;;;;;;;2.05;1.58;;;;;;;;;;4937882;29;20034;-87
2023/04/29 00:13:58;;;;;;;1.60;1.50;;;;;;;;;;4938054;28;20034;-88
2023/04/29 00:16:24;;;;;;;1.75;1.38;;;;;;;;;;4935784;29;20027;-88
2023/04/29 00:18:49;;;;;;;1.70;1.60;;;;;;;;;;4933856;29;20039;-86
2023/04/29 00:21:15;;;;;;;2.22;1.77;;;;;;;;;;4920836;29;20031;-86
2023/04/29 00:23:40;;;;;;;1.90;1.58;;;;;;;;;;4921418;29;20031;-87
2023/04/29 00:26:06;;;;;;;2.22;1.63;;;;;;;;;;4931111;29;20023;-87
2023/04/29 00:28:32;;;;;;;2.75;2.00;;;;;;;;;;4921190;29;20031;-87
2023/04/29 00:30:57;;;;;;;5.65;1.70;;;;;;;;;;4915149;29;20016;-88
2023/04/29 00:33:22;;;;;;;1.90;1.70;;;;;;;;;;4916468;29;20043;-85
2023/04/29 00:35:48;;;;;;;2.47;1.50;;;;;;;;;;4920196;29;20122;-85
2023/04/29 00:38:13;;;;;;;2.00;1.80;;;;;;;;;;4916725;29;20023;-87
2023/04/29 00:40:38;;;;;;;1.60;1.50;;;;;;;;;;4948520;29;20040;-87
2023/04/29 00:43:04;;;;;;;4.40;1.60;;;;;;;;;;4952861;28;20043;-85
2023/04/29 00:45:29;;;;;;;1.77;1.50;;;;;;;;;;4938627;29;20060;-85
2023/04/29 00:48:04;;;;;;;1.70;1.38;;;;;;;;;;4937589;29;20030;-86
2023/04/29 00:50:35;;;;;;;1.80;1.70;;;;;;;;;;4956287;28;20024;-84
2023/04/29 00:53:01;;;;;;;2.63;1.60;;;;;;;;;;4939983;29;20061;-85
2023/04/29 00:55:27;;;;;;;1.50;1.40;;;;;;;;;;4925465;29;20079;-85
2023/04/29 00:57:52;;;;;;;7.07;1.98;;;;;;;;;;4914360;29;20624;-87
2023/04/29 01:00:19;;;;;;;6.03;1.80;;;;;;;;;;4936683;29;20031;-88
2023/04/29 01:02:45;;;;;;;1.77;1.67;;;;;;;;;;4921596;29;20027;-87
2023/04/29 01:05:10;;;;;;;1.50;1.40;;;;;;;;;;4916769;29;20028;-85
2023/04/29 01:07:38;;;;;;;1.73;1.52;;;;;;;;;;4934283;29;20038;-87
2023/04/29 01:10:14;;;;;;;4.63;1.70;;;;;;;;;;4918312;29;20478;-85
2023/04/29 01:13:06;;;;;;;2.05;1.70;;;;;;;;;;4919222;29;20468;-87
2023/04/29 01:15:53;;;;;;;1.58;1.40;;;;;;;;;;4908390;29;20103;-88
2023/04/29 01:18:35;;;;;;;1.63;1.52;;;;;;;;;;4937084;29;20036;-86
2023/04/29 01:21:01;;;;;;;2.75;2.22;;;;;;;;;;4954203;29;20031;-88
2023/04/29 01:23:27;;;;;;;1.73;1.50;;;;;;;;;;4937296;29;20078;-85
2023/04/29 01:25:53;;;;;;;2.47;1.60;;;;;;;;;;4954003;28;20058;-89
2023/04/29 01:28:49;;;;;;;2.00;1.73;;;;;;;;;;4955108;28;20031;-89
2023/04/29 01:31:23;;;;;;;1.80;1.70;;;;;;;;;;4939134;28;20027;-88
2023/04/29 01:34:04;;;;;;;1.80;1.70;;;;;;;;;;4953510;28;20023;-88
2023/04/29 01:36:36;;;;;;;2.88;2.00;;;;;;;;;;4936572;29;20034;-87
2023/04/29 01:39:06;;;;;;;2.10;1.70;;;;;;;;;;4937052;29;20042;-87
2023/04/29 01:41:50;;;;;;;6.38;2.10;;;;;;;;;;4936863;29;20488;-87
2023/04/29 01:44:20;;;;;;;2.90;1.80;;;;;;;;;;4936981;29;20031;-88
2023/04/29 01:46:50;;;;;;;6.32;1.70;;;;;;;;;;4937783;29;20487;-88
2023/04/29 01:49:19;;;;;;;9.02;1.88;;;;;;;;;;4953625;28;20106;-87
2023/04/29 01:51:45;;;;;;;2.20;1.73;;;;;;;;;;4951717;28;20023;-87
2023/04/29 01:54:10;;;;;;;2.28;2.08;;;;;;;;;;4936066;28;20026;-88
2023/04/29 01:56:35;;;;;;;10.93;2.00;;;;;;;;;;4939302;29;20122;-89
2023/04/29 01:59:01;;;;;;;4.93;2.08;;;;;;;;;;4972551;28;20042;-86
2023/04/29 02:01:26;;;;;;;2.92;1.80;;;;;;;;;;4966831;28;20035;-90
2023/04/29 02:03:52;;;;;;;2.25;2.03;;;;;;;;;;4940464;28;20029;-89
2023/04/29 02:06:17;;;;;;;2.47;1.83;;;;;;;;;;4939239;29;20033;-88
2023/04/29 02:08:42;;;;;;;5.40;1.98;;;;;;;;;;4941361;28;20034;-87
2023/04/29 02:11:08;;;;;;;1.70;1.58;;;;;;;;;;4942309;29;20046;-88
2023/04/29 02:13:33;;;;;;;1.77;1.67;;;;;;;;;;4942072;29;20054;-89
2023/04/29 02:16:07;;;;;;;3.58;2.00;;;;;;;;;;4938661;28;20050;-88
2023/04/29 02:18:32;;;;;;;5.03;2.00;;;;;;;;;;4931968;29;20035;-87
2023/04/29 02:21:01;;;;;;;2.35;1.88;;;;;;;;;;4929651;29;20459;-87
2023/04/29 02:23:27;;;;;;;2.30;1.50;;;;;;;;;;4917246;29;20030;-85
2023/04/29 02:25:52;;;;;;;2.00;1.80;;;;;;;;;;4918318;29;20039;-88
2023/04/29 02:28:17;;;;;;;2.00;1.60;;;;;;;;;;4915834;29;20020;-88
2023/04/29 02:30:43;;;;;;;4.93;1.73;;;;;;;;;;4915697;29;20036;-88
2023/04/29 02:33:09;;;;;;;1.60;1.50;;;;;;;;;;4915052;29;20396;-86
2023/04/29 02:35:34;;;;;;;1.55;1.45;;;;;;;;;;4915787;29;20058;-89
2023/04/29 02:38:00;;;;;;;3.22;1.80;;;;;;;;;;4917348;29;20038;-88
2023/04/29 02:40:25;;;;;;;4.28;1.92;;;;;;;;;;4933955;29;20024;-87
2023/04/29 02:42:51;;;;;;;4.60;1.55;;;;;;;;;;4917270;29;20019;-88
2023/04/29 02:45:16;;;;;;;3.25;1.70;;;;;;;;;;4914859;29;20051;-89
2023/04/29 02:47:42;;;;;;;2.10;1.70;;;;;;;;;;4932997;29;20050;-88
2023/04/29 02:50:08;;;;;;;1.60;1.48;;;;;;;;;;4923452;29;20506;-86
2023/04/29 02:52:34;;;;;;;2.55;1.67;;;;;;;;;;4938485;29;20027;-89
2023/04/29 02:54:59;;;;;;;4.38;1.70;;;;;;;;;;4918295;29;20059;-88
2023/04/29 02:57:25;;;;;;;1.90;1.77;;;;;;;;;;4931453;29;20027;-88
2023/04/29 02:59:50;;;;;;;3.35;1.98;;;;;;;;;;4954787;29;20086;-89
2023/04/29 03:02:16;;;;;;;2.33;1.90;;;;;;;;;;4933048;29;20023;-88
2023/04/29 03:04:41;;;;;;;1.67;1.58;;;;;;;;;;4920307;28;20251;-88
2023/04/29 03:07:07;;;;;;;2.88;1.75;;;;;;;;;;4921555;29;20027;-87
2023/04/29 03:09:33;;;;;;;4.03;1.67;;;;;;;;;;4939777;29;20035;-89
2023/04/29 03:11:58;;;;;;;3.63;1.73;;;;;;;;;;4939495;29;20500;-88
2023/04/29 03:14:23;;;;;;;1.77;1.67;;;;;;;;;;4921058;29;20102;-87
2023/04/29 03:16:49;;;;;;;2.47;1.90;;;;;;;;;;4923172;29;20028;-88
2023/04/29 03:19:15;;;;;;;2.33;1.60;;;;;;;;;;4943195;28;20027;-87
2023/04/29 03:21:41;;;;;;;1.83;1.73;;;;;;;;;;4965698;28;20030;-88
2023/04/29 03:24:06;;;;;;;3.60;1.80;;;;;;;;;;4942520;28;20086;-86
2023/04/29 03:26:31;;;;;;;3.25;1.90;;;;;;;;;;4952790;28;20113;-87
2023/04/29 03:28:57;;;;;;;1.95;1.50;;;;;;;;;;4950079;28;20403;-87
2023/04/29 03:31:24;;;;;;;2.13;1.70;;;;;;;;;;4946450;29;20111;-87
2023/04/29 03:33:49;;;;;;;2.00;1.63;;;;;;;;;;4957751;28;20027;-88
2023/04/29 03:36:15;;;;;;;4.25;1.80;;;;;;;;;;4939951;29;20487;-88
2023/04/29 03:38:41;;;;;;;2.10;1.65;;;;;;;;;;4958150;29;20043;-88
2023/04/29 03:41:06;;;;;;;2.70;2.00;;;;;;;;;;4940906;29;20078;-88
2023/04/29 03:43:32;;;;;;;2.78;1.70;;;;;;;;;;4940764;29;20034;-88
2023/04/29 03:45:57;;;;;;;2.17;1.83;;;;;;;;;;4944585;28;20118;-88
2023/04/29 03:48:23;;;;;;;5.60;2.42;;;;;;;;;;4954950;29;20439;-88
2023/04/29 03:50:50;;;;;;;6.78;2.13;;;;;;;;;;4943266;29;20682;-88
2023/04/29 03:53:16;;;;;;;5.13;1.77;;;;;;;;;;4947923;29;20042;-85
2023/04/29 03:55:41;;;;;;;2.25;1.75;;;;;;;;;;4964521;28;20041;-86
2023/04/29 03:58:07;;;;;;;1.85;1.60;;;;;;;;;;4984029;28;20045;-86
2023/04/29 04:00:32;;;;;;;2.40;1.80;;;;;;;;;;4969703;28;20034;-85
2023/04/29 04:02:58;;;;;;;2.35;2.03;;;;;;;;;;4945629;28;20031;-88
2023/04/29 04:05:24;;;;;;;5.13;1.60;;;;;;;;;;4946259;29;20027;-88
2023/04/29 04:07:51;;;;;;;4.57;1.98;;;;;;;;;;4940525;29;20023;-87
2023/04/29 04:10:17;;;;;;;2.33;1.98;;;;;;;;;;4940753;29;20094;-87
2023/04/29 04:12:42;;;;;;;1.98;1.67;;;;;;;;;;4941129;29;20105;-88
2023/04/29 04:15:08;;;;;;;5.75;1.92;;;;;;;;;;4947183;28;20555;-87
2023/04/29 04:17:33;;;;;;;1.83;1.73;;;;;;;;;;4966729;28;20027;-86
2023/04/29 04:19:58;;;;;;;2.97;1.92;;;;;;;;;;4952430;28;20407;-88
2023/04/29 04:22:24;;;;;;;4.28;2.10;;;;;;;;;;4933390;29;20102;-87
2023/04/29 04:24:49;;;;;;;3.83;2.13;;;;;;;;;;4941019;28;20483;-87
2023/04/29 04:27:15;;;;;;;3.15;2.28;;;;;;;;;;4948792;29;20050;-88
2023/04/29 04:29:40;;;;;;;2.53;2.20;;;;;;;;;;4935241;29;20408;-86
2023/04/29 04:32:05;;;;;;;3.50;2.20;;;;;;;;;;4966066;28;20031;-88
2023/04/29 04:34:31;;;;;;;6.85;2.53;;;;;;;;;;4939329;29;20023;-86
2023/04/29 04:36:56;;;;;;;4.32;2.60;;;;;;;;;;4980855;23;20063;-86
2023/04/29 04:39:22;;;;;;;2.13;2.03;;;;;;;;;;4984950;28;20085;-84
2023/04/29 04:41:47;;;;;;;3.47;2.63;;;;;;;;;;4993177;28;20125;-89
2023/04/29 04:44:13;;;;;;;4.40;2.85;;;;;;;;;;4978275;28;20026;-83
2023/04/29 04:46:38;;;;;;;2.28;2.08;;;;;;;;;;4979799;28;20569;-83
2023/04/29 04:49:04;;;;;;;4.32;2.55;;;;;;;;;;4977638;28;20541;-85
2023/04/29 04:51:30;;;;;;;3.28;2.72;;;;;;;;;;4978559;28;20037;-86
2023/04/29 04:53:55;;;;;;;4.78;3.40;;;;;;;;;;4994499;28;20082;-85
2023/04/29 04:56:21;;;;;;;3.08;2.65;;;;;;;;;;4983266;28;20131;-83
2023/04/29 04:58:46;;;;;;;3.05;2.75;;;;;;;;;;4994398;28;20035;-85
2023/04/29 05:01:12;;;;;;;3.58;2.92;;;;;;;;;;4992364;28;20026;-84
2023/04/29 05:03:37;;;;;;;4.80;3.30;;;;;;;;;;4992611;28;20034;-84
2023/04/29 05:06:03;;;;;;;4.85;3.20;;;;;;;;;;4975365;28;20444;-87
2023/04/29 05:08:28;;;;;;;5.70;3.28;;;;;;;;;;4982403;28;20453;-86
2023/04/29 05:10:54;;;;;;;4.20;3.00;;;;;;;;;;4981557;28;20023;-89
2023/04/29 05:13:19;;;;;;;5.20;3.15;;;;;;;;;;4988107;28;20593;-83
2023/04/29 05:15:45;;;;;;;5.53;3.65;;;;;;;;;;4978209;28;20022;-84
2023/04/29 05:18:10;;;;;;;6.68;3.85;;;;;;;;;;4988482;28;20023;-84
2023/04/29 05:20:36;;;;;;;3.88;2.90;;;;;;;;;;4975048;28;20027;-84
2023/04/29 05:23:02;;;;;;;4.40;3.60;;;;;;;;;;4974720;28;20034;-84
2023/04/29 05:25:28;;;;;;;4.57;3.53;;;;;;;;;;4981373;28;20045;-85
2023/04/29 05:27:53;;;;;;;5.93;3.25;;;;;;;;;;4972743;28;20030;-85
2023/04/29 05:30:19;;;;;;;4.80;3.28;;;;;;;;;;4976099;28;20143;-84
2023/04/29 05:32:50;;;;;;;5.90;3.70;;;;;;;;;;4981460;28;20030;-85
2023/04/29 05:35:15;;;;;;;3.10;2.72;;;;;;;;;;4979360;28;20018;-86
2023/04/29 05:37:41;;;;;;;4.50;3.10;;;;;;;;;;5001408;28;20041;-84
2023/04/29 05:40:07;;;;;;;4.00;3.20;;;;;;;;;;4983906;28;20023;-86
2023/04/29 05:42:32;;;;;;;2.75;2.20;;;;;;;;;;4988456;28;20477;-85
2023/04/29 05:44:58;;;;;;;2.65;2.30;;;;;;;;;;5013933;28;20042;-86
2023/04/29 05:47:23;;;;;;;5.05;2.85;;;;;;;;;;4994133;28;20022;-88
2023/04/29 05:49:49;;;;;;;3.53;2.60;;;;;;;;;;4998647;28;20102;-85
2023/04/29 05:52:14;;;;;;;5.78;2.78;;;;;;;;;;4999690;28;20029;-85
2023/04/29 05:54:40;;;;;;;3.42;2.60;;;;;;;;;;5000466;28;20173;-86
2023/04/29 05:57:06;;;;;;;5.70;2.80;;;;;;;;;;4982719;28;20042;-86
2023/04/29 05:59:32;;;;;;;2.83;2.50;;;;;;;;;;4976492;28;20038;-87
2023/04/29 06:01:58;;;;;;;2.80;2.50;;;;;;;;;;4979021;28;20030;-86
2023/04/29 06:04:24;;;;;;;4.68;3.05;;;;;;;;;;4993237;28;20054;-87
2023/04/29 06:06:56;;;;;;;3.33;2.67;;;;;;;;;;4999113;28;20033;-87
2023/04/29 06:09:25;;;;;;;3.45;2.78;;;;;;;;;;4979707;28;20057;-86
2023/04/29 06:11:51;;;;;;;4.80;2.30;;;;;;;;;;4995304;28;20112;-87
2023/04/29 06:14:16;;;;;;;3.72;2.75;;;;;;;;;;4994753;28;20509;-85
2023/04/29 06:16:43;;;;;;;3.30;2.70;;;;;;;;;;4977198;28;20116;-85
2023/04/29 06:19:08;;;;;;;4.45;2.88;;;;;;;;;;4982134;28;20397;-85
2023/04/29 06:21:34;;;;;;;4.45;2.42;;;;;;;;;;5007286;28;20056;-84
2023/04/29 06:24:02;;;;;;;2.67;2.42;;;;;;;;;;4988808;28;20030;-86
2023/04/29 06:26:30;;;;;;;3.33;2.55;;;;;;;;;;4975561;28;20490;-84
2023/04/29 06:28:56;;;;;;;3.05;2.25;;;;;;;;;;4987108;28;20034;-85
2023/04/29 06:31:22;;;;;;;3.28;1.92;;;;;;;;;;4986409;28;20033;-86
2023/04/29 06:33:50;;;;;;;7.63;2.30;;;;;;;;;;5009156;28;20112;-87
2023/04/29 06:36:15;;;;;;;2.58;2.38;;;;;;;;;;4997575;28;20026;-87
2023/04/29 06:38:49;;;;;;;2.35;2.08;;;;;;;;;;5001388;28;20087;-86
2023/04/29 06:41:29;;;;;;;4.60;2.25;;;;;;;;;;4994251;28;20022;-85
2023/04/29 06:44:24;;;;;;;1.70;1.60;;;;;;;;;;4964695;28;20034;-86
2023/04/29 06:46:55;;;;;;;2.40;1.80;;;;;;;;;;4991175;28;20034;-87
2023/04/29 06:49:34;;;;;;;5.13;1.73;;;;;;;;;;4979235;28;20023;-86
2023/04/29 06:55:19;;;;;;;2.92;2.15;;;;;;;;;;4954703;28;20131;-86
2023/04/29 06:57:45;;;;;;;2.63;2.00;;;;;;;;;;4978077;28;20037;-86
2023/04/29 07:01:24;;;;;;;2.08;1.60;;;;;;;;;;4978878;28;20038;-87
2023/04/29 07:07:15;;;;;;;2.53;1.77;;;;;;;;;;4986772;28;20637;-86
2023/04/29 07:10:01;;;;;;;1.98;1.67;;;;;;;;;;4978620;28;20026;-87
2023/04/29 07:12:44;;;;;;;1.40;1.30;;;;;;;;;;4976945;28;20070;-87
2023/04/29 07:15:10;;;;;;;2.58;1.75;;;;;;;;;;4986245;28;20030;-86
2023/04/29 07:17:38;;;;;;;2.58;1.75;;;;;;;;;;4987183;28;20393;-86
2023/04/29 07:33:22;;;;;;;1.50;1.40;;;;;;;;;;4998716;23;20506;-83
2023/04/29 07:35:47;;;;;;;2.72;1.60;;;;;;;;;;4956430;28;20107;-84
2023/04/29 07:38:13;;;;;;;2.75;1.95;;;;;;;;;;4939961;28;20126;-83
2023/04/29 07:40:38;;;;;;;1.95;1.70;;;;;;;;;;4945759;28;20031;-82
2023/04/29 07:43:05;;;;;;;1.83;1.73;;;;;;;;;;4957729;28;20113;-84
2023/04/29 07:45:31;;;;;;;2.83;1.75;;;;;;;;;;4946264;29;20206;-82
2023/04/29 07:47:56;;;;;;;2.10;1.90;;;;;;;;;;4938337;29;20091;-83
2023/04/29 07:50:24;;;;;;;3.05;1.70;;;;;;;;;;4962834;28;20039;-83
2023/04/29 07:52:50;;;;;;;4.30;1.92;;;;;;;;;;4939519;29;20067;-84
2023/04/29 07:55:15;;;;;;;1.65;1.55;;;;;;;;;;4955879;28;20039;-83
2023/04/29 07:57:43;;;;;;;2.13;1.88;;;;;;;;;;4960250;28;20039;-84
2023/04/29 08:00:15;;;;;;;3.50;1.90;;;;;;;;;;4955100;28;20509;-82
2023/04/29 08:03:04;;;;;;;;;;;;;;;;;;4963505;28;20042;-82
2023/04/29 08:08:45;;;;;;;2.55;1.65;;;;;;;;;;5104928;23;20037;-82
2023/04/29 08:11:17;;;;;;;2.15;1.73;;;;;;;;;;4945102;29;20251;-82
2023/04/29 08:13:42;;;;;;;;;;;;;;;;;;4950345;29;20063;-84
2023/04/29 08:43:43;;;;;;;;;;;;;;;;;;;;;
2023/04/29 08:46:12;;;;;;;2.38;1.52;;;;;;;;;;5388247;23;20032;-82
2023/04/29 08:48:39;;;;;;;3.08;1.88;;;;;;;;;;4962204;28;20043;-82
2023/04/29 08:51:05;;;;;;;3.90;2.13;;;;;;;;;;4970880;28;20031;-85
2023/04/29 08:53:30;;;;;;;3.05;2.08;;;;;;;;;;4976453;28;20069;-81
2023/04/29 08:55:59;;;;;;;2.50;2.30;;;;;;;;;;4951871;28;20043;-85
2023/04/29 08:58:28;;;;;;;3.92;2.30;;;;;;;;;;4946043;29;20058;-84
2023/04/29 09:00:54;;;;;;;2.47;2.28;;;;;;;;;;4938111;29;20541;-83
2023/04/29 09:03:41;;;;;;;2.72;2.20;;;;;;;;;;4935846;29;20027;-84
2023/04/29 09:06:10;;;;;;;2.40;2.20;;;;;;;;;;4929732;29;20036;-86
2023/04/29 09:08:36;;;;;;;3.33;2.55;;;;;;;;;;4944864;29;20031;-83
2023/04/29 09:11:04;;;;;;;4.05;2.70;;;;;;;;;;4929510;29;20058;-83
2023/04/29 09:13:30;;;;;;;3.10;2.67;;;;;;;;;;4935444;29;20035;-83
2023/04/29 09:15:56;;;;;;;2.92;2.40;;;;;;;;;;4940579;29;20034;-83
2023/04/29 09:18:41;;;;;;;4.57;2.22;;;;;;;;;;4930720;29;20114;-83
2023/04/29 09:21:26;;;;;;;3.13;2.38;;;;;;;;;;4932811;29;20027;-83
2023/04/29 09:23:56;;;;;;;3.53;2.08;;;;;;;;;;4945752;29;20088;-80
2023/04/29 09:26:23;;;;;;;1.98;1.73;;;;;;;;;;4952337;29;20326;-81
2023/04/29 09:29:17;;;;;;;2.60;2.15;;;;;;;;;;4925640;29;20135;-82
2023/04/29 09:31:43;;;;;;;2.70;2.17;;;;;;;;;;4923967;29;20031;-84
2023/04/29 09:34:10;;;;;;;3.60;2.65;;;;;;;;;;4950949;29;20032;-84
2023/04/29 09:36:57;;;;;;;3.55;2.42;;;;;;;;;;4939185;29;20028;-83
2023/04/29 09:39:41;;;;;;;3.08;2.15;;;;;;;;;;4922780;29;20124;-84
2023/04/29 09:42:42;;;;;;;3.55;2.35;;;;;;;;;;4931138;29;20032;-85
2023/04/29 09:45:08;;;;;;;2.47;2.00;;;;;;;;;;4892356;29;20136;-84
2023/04/29 09:47:34;;;;;;;2.33;2.13;;;;;;;;;;4893414;29;20393;-84
2023/04/29 09:50:45;;;;;;;2.30;2.10;;;;;;;;;;4932821;29;20050;-83
2023/04/29 09:53:30;;;;;;;3.00;2.30;;;;;;;;;;4908090;29;20044;-84
2023/04/29 09:56:01;;;;;;;2.30;1.92;;;;;;;;;;4919041;29;20031;-84
2023/04/29 09:58:39;;;;;;;2.75;1.90;;;;;;;;;;4924760;29;20031;-82
2023/04/29 10:01:30;;;;;;;3.00;2.55;;;;;;;;;;4921871;29;20043;-81
2023/04/29 10:04:31;;;;;;;2.65;1.90;;;;;;;;;;4921253;29;20024;-82
2023/04/29 10:06:56;;;;;;;3.20;2.30;;;;;;;;;;4944113;29;20526;-84
2023/04/29 10:09:23;;;;;;;2.92;2.10;;;;;;;;;;4924523;29;20032;-83
2023/04/29 10:11:50;;;;;;;2.45;2.17;;;;;;;;;;4945629;29;20023;-83
2023/04/29 10:14:23;;;;;;;28.42;7.22;;;;;;;;;;4916527;28;20027;-83
2023/04/29 10:17:17;;;;;;;7.82;3.35;;;;;;;;;;4925540;29;20111;-84
2023/04/29 10:20:00;;;;;;;7.63;3.35;;;;;;;;;;4930661;29;20035;-80
2023/04/29 10:22:32;;;;;;;2.58;1.90;;;;;;;;;;4921176;29;20464;-79
2023/04/29 10:25:00;;;;;;;4.53;2.30;;;;;;;;;;4942567;29;20376;-80
2023/04/29 10:27:27;;;;;;;12.18;4.78;;;;;;;;;;4921513;29;20023;-80
2023/04/29 10:29:55;;;;;;;6.18;3.50;;;;;;;;;;4930516;29;20039;-81
2023/04/29 10:32:21;;;;;;;3.78;2.38;;;;;;;;;;4934783;29;20042;-81
2023/04/29 10:34:48;;;;;;;5.55;2.10;;;;;;;;;;4929917;29;20030;-82
2023/04/29 10:37:15;;;;;;;2.30;1.80;;;;;;;;;;5001434;23;20297;-82
2023/04/29 10:39:58;;;;;;;2.92;2.20;;;;;;;;;;4936793;29;20083;-84
2023/04/29 10:42:45;;;;;;;2.22;1.88;;;;;;;;;;4973927;28;20088;-81
2023/04/29 10:45:27;;;;;;;2.47;2.10;;;;;;;;;;4955837;28;20026;-83
2023/04/29 10:48:01;;;;;;;;;;;;;;;;;;4964214;28;20041;-82
2023/04/29 10:50:28;;;;;;;2.20;2.00;;;;;;;;;;4965665;28;19914;-84
2023/04/29 10:52:57;;;;;;;2.63;2.13;;;;;;;;;;4942549;29;20502;-86
2023/04/29 10:55:23;;;;;;;2.35;2.03;;;;;;;;;;4939310;28;20057;-84
2023/04/29 10:57:51;;;;;;;3.03;2.38;;;;;;;;;;4936753;28;20629;-82
2023/04/29 11:00:30;;;;;;;4.90;2.53;;;;;;;;;;4945140;28;20031;-83
2023/04/29 11:02:57;;;;;;;1.73;1.63;;;;;;;;;;4968489;28;20030;-81
2023/04/29 11:05:36;;;;;;;5.25;2.00;;;;;;;;;;4972962;28;20029;-84
2023/04/29 11:08:11;;;;;;;2.78;2.05;;;;;;;;;;4933510;29;20027;-84
2023/04/29 11:10:40;;;;;;;1.45;1.30;;;;;;;;;;4947248;29;20031;-85
2023/04/29 11:13:29;;;;;;;2.30;2.10;;;;;;;;;;4947642;29;20033;-83
2023/04/29 11:16:05;;;;;;;1.85;1.70;;;;;;;;;;4946094;29;20028;-83
2023/04/29 11:18:31;;;;;;;2.47;2.00;;;;;;;;;;4952489;28;20055;-84
2023/04/29 11:21:05;;;;;;;1.38;1.27;;;;;;;;;;4938285;29;20031;-85
2023/04/29 11:23:44;;;;;;;2.90;1.67;;;;;;;;;;4956609;28;20038;-84
2023/04/29 11:26:09;;;;;;;2.70;1.70;;;;;;;;;;4936018;28;20031;-86
2023/04/29 11:28:35;;;;;;;1.80;1.63;;;;;;;;;;4947685;29;20065;-85
2023/04/29 11:31:02;;;;;;;3.75;1.92;;;;;;;;;;4964034;28;20023;-85
2023/04/29 11:33:31;;;;;;;4.25;2.05;;;;;;;;;;4942117;28;20546;-84
2023/04/29 11:35:57;;;;;;;4.50;2.45;;;;;;;;;;4969684;28;20102;-84
2023/04/29 11:38:29;;;;;;;4.38;3.33;;;;;;;;;;4942587;28;20055;-84
2023/04/29 11:41:00;;;;;;;6.03;3.70;;;;;;;;;;4954263;28;20023;-85
2023/04/29 11:43:25;;;;;;;4.82;3.60;;;;;;;;;;4942857;28;20114;-85
2023/04/29 11:45:52;;;;;;;4.43;3.35;;;;;;;;;;4941716;28;20055;-83
2023/04/29 11:48:23;;;;;;;4.72;3.72;;;;;;;;;;4943946;28;20039;-84
2023/04/29 11:50:51;;;;;;;4.40;2.83;;;;;;;;;;4942470;29;20094;-83
2023/04/29 11:53:19;;;;;;;4.05;3.38;;;;;;;;;;4955921;28;20026;-83
2023/04/29 11:55:45;;;;;;;8.85;3.38;;;;;;;;;;4960236;28;20035;-85
2023/04/29 11:58:11;;;;;;;4.63;3.25;;;;;;;;;;4941749;28;20106;-84
2023/04/29 12:00:37;;;;;;;6.32;3.60;;;;;;;;;;4970358;28;20024;-82
2023/04/29 12:03:16;;;;;;;5.38;3.40;;;;;;;;;;4944507;29;20074;-83
2023/04/29 12:05:52;;;;;;;6.13;3.60;;;;;;;;;;4935508;29;20037;-85
2023/04/29 12:08:25;;;;;;;5.45;3.00;;;;;;;;;;4950648;28;20039;-85
2023/04/29 12:10:52;;;;;;;6.03;3.67;;;;;;;;;;4955441;28;20038;-84
2023/04/29 12:13:18;;;;;;;5.00;3.53;;;;;;;;;;4938746;28;20057;-84
2023/04/29 12:15:45;;;;;;;4.15;3.03;;;;;;;;;;4944366;28;20670;-83
2023/04/29 12:18:11;;;;;;;4.28;3.33;;;;;;;;;;4943920;28;20030;-79
2023/04/29 12:20:38;;;;;;;4.78;3.30;;;;;;;;;;4958644;28;20113;-83
2023/04/29 12:23:18;;;;;;;5.25;3.22;;;;;;;;;;4946721;29;20094;-82
2023/04/29 12:25:51;;;;;;;5.88;3.40;;;;;;;;;;4932243;29;20114;-84
2023/04/29 12:28:18;;;;;;;3.90;3.47;;;;;;;;;;4961058;28;20039;-85
2023/04/29 12:30:45;;;;;;;7.63;3.35;;;;;;;;;;4948759;28;20031;-85
2023/04/29 12:33:17;;;;;;;7.13;3.65;;;;;;;;;;4951097;28;20086;-85
2023/04/29 12:35:42;;;;;;;5.68;3.47;;;;;;;;;;4942920;29;20023;-83
2023/04/29 12:38:08;;;;;;;6.22;3.53;;;;;;;;;;4935960;29;20555;-84
2023/04/29 12:40:33;;;;;;;4.32;3.28;;;;;;;;;;4943703;28;20030;-84
2023/04/29 12:43:06;;;;;;;4.47;3.58;;;;;;;;;;4951071;28;20563;-85
2023/04/29 12:45:33;;;;;;;6.05;3.88;;;;;;;;;;4953832;28;20035;-82
2023/04/29 12:47:59;;;;;;;5.93;4.45;;;;;;;;;;4951864;29;20074;-85
2023/04/29 12:50:36;;;;;;;6.22;4.03;;;;;;;;;;4946347;28;20089;-84
2023/04/29 12:53:07;;;;;;;6.72;3.72;;;;;;;;;;4964215;28;20031;-82
2023/04/29 12:55:33;;;;;;;7.10;4.18;;;;;;;;;;4943710;29;20023;-83
2023/04/29 12:57:59;;;;;;;8.88;4.50;;;;;;;;;;4948902;28;20019;-83
2023/04/29 13:00:25;;;;;;;10.48;4.40;;;;;;;;;;4955960;28;20026;-83
2023/04/29 13:02:50;;;;;;;10.00;5.00;;;;;;;;;;4957196;29;20112;-83
2023/04/29 13:05:16;;;;;;;7.05;3.72;;;;;;;;;;4967326;28;20050;-83
2023/04/29 13:07:41;;;;;;;6.13;3.97;;;;;;;;;;4946303;29;20023;-84
2023/04/29 13:10:07;;;;;;;14.45;4.50;;;;;;;;;;4943724;28;20070;-82
2023/04/29 13:12:33;;;;;;;5.53;4.28;;;;;;;;;;4941537;28;20026;-83
2023/04/29 13:14:58;;;;;;;7.47;4.38;;;;;;;;;;4951215;29;20022;-85
2023/04/29 13:17:23;;;;;;;6.72;4.45;;;;;;;;;;4966965;28;20030;-83
2023/04/29 13:19:49;;;;;;;7.57;4.68;;;;;;;;;;4951940;28;20105;-81
2023/04/29 13:22:15;;;;;;;12.30;4.60;;;;;;;;;;4950065;28;20019;-83
2023/04/29 13:24:40;;;;;;;7.10;4.80;;;;;;;;;;4942419;29;20018;-82
2023/04/29 13:27:05;;;;;;;7.93;4.70;;;;;;;;;;4962787;28;20502;-81
2023/04/29 13:29:31;;;;;;;8.10;5.13;;;;;;;;;;4955259;28;20625;-84
2023/04/29 13:31:56;;;;;;;6.03;4.05;;;;;;;;;;4957856;28;20458;-83
2023/04/29 13:34:21;;;;;;;7.15;4.30;;;;;;;;;;4941308;28;20086;-82
2023/04/29 13:36:47;;;;;;;9.88;4.20;;;;;;;;;;4949029;29;20063;-82
2023/04/29 13:39:12;;;;;;;6.82;4.22;;;;;;;;;;4941718;29;20122;-82
2023/04/29 13:41:37;;;;;;;7.45;4.50;;;;;;;;;;4944204;28;20109;-85
2023/04/29 13:44:03;;;;;;;12.70;5.43;;;;;;;;;;4938994;29;20030;-83
2023/04/29 13:46:28;;;;;;;7.25;4.85;;;;;;;;;;4945556;28;20031;-84
2023/04/29 13:48:54;;;;;;;8.68;4.80;;;;;;;;;;4954037;28;20150;-83
2023/04/29 13:51:19;;;;;;;7.30;5.05;;;;;;;;;;4943262;29;20023;-83
2023/04/29 13:53:45;;;;;;;7.60;4.60;;;;;;;;;;4941093;29;20034;-83
2023/04/29 13:56:10;;;;;;;7.43;4.20;;;;;;;;;;4941626;29;20026;-83
2023/04/29 13:58:35;;;;;;;11.40;4.70;;;;;;;;;;4964404;28;20030;-82
2023/04/29 14:01:01;;;;;;;7.13;4.53;;;;;;;;;;4969712;28;20023;-84
2023/04/29 14:03:26;;;;;;;9.27;4.60;;;;;;;;;;4945877;28;20027;-83
2023/04/29 14:05:52;;;;;;;6.50;4.15;;;;;;;;;;4942268;28;20027;-82
2023/04/29 14:08:17;;;;;;;6.18;4.50;;;;;;;;;;4943258;28;20026;-83
2023/04/29 14:10:43;;;;;;;9.85;4.32;;;;;;;;;;4967592;28;20031;-82
2023/04/29 14:13:08;;;;;;;5.68;3.80;;;;;;;;;;4939618;29;20546;-84
2023/04/29 14:15:33;;;;;;;7.90;4.45;;;;;;;;;;4950000;28;20543;-83
2023/04/29 14:17:59;;;;;;;8.30;4.20;;;;;;;;;;4950071;28;20447;-83
2023/04/29 14:20:24;;;;;;;7.20;4.38;;;;;;;;;;4941142;29;20019;-83
2023/04/29 14:22:49;;;;;;;7.28;3.85;;;;;;;;;;4948551;29;20019;-83
2023/04/29 14:25:15;;;;;;;6.70;4.45;;;;;;;;;;4935958;29;20114;-83
2023/04/29 14:27:40;;;;;;;7.75;4.15;;;;;;;;;;4966073;28;20038;-83
2023/04/29 14:30:07;;;;;;;7.47;4.68;;;;;;;;;;4951801;28;20039;-82
2023/04/29 14:32:32;;;;;;;8.27;4.28;;;;;;;;;;4949426;28;20031;-82
2023/04/29 14:34:58;;;;;;;4.38;3.25;;;;;;;;;;4958524;28;20030;-83
2023/04/29 14:37:23;;;;;;;7.38;4.63;;;;;;;;;;4943729;28;20027;-83
2023/04/29 14:39:49;;;;;;;9.07;4.35;;;;;;;;;;4947365;28;20470;-81
2023/04/29 14:42:14;;;;;;;7.10;4.68;;;;;;;;;;4942667;29;20479;-82
2023/04/29 14:44:40;;;;;;;6.80;4.43;;;;;;;;;;4955375;28;20015;-83
2023/04/29 14:47:05;;;;;;;6.07;4.20;;;;;;;;;;4957036;28;20545;-81
2023/04/29 14:49:30;;;;;;;6.55;4.53;;;;;;;;;;4963443;28;20023;-81
2023/04/29 14:51:56;;;;;;;6.93;4.40;;;;;;;;;;4957512;28;20497;-81
2023/04/29 14:54:21;;;;;;;7.10;4.07;;;;;;;;;;4955813;28;20139;-83
2023/04/29 14:56:46;;;;;;;6.95;4.32;;;;;;;;;;4941290;29;20031;-83
2023/04/29 14:59:12;;;;;;;10.38;5.18;;;;;;;;;;4946508;28;20045;-82
2023/04/29 15:01:38;;;;;;;7.45;4.45;;;;;;;;;;4950418;28;20130;-84
2023/04/29 15:04:04;;;;;;;6.57;4.22;;;;;;;;;;4941487;29;20387;-82
2023/04/29 15:06:31;;;;;;;7.93;4.47;;;;;;;;;;4947206;28;20023;-83
2023/04/29 15:08:56;;;;;;;9.57;4.35;;;;;;;;;;4943536;28;20073;-82
2023/04/29 15:11:21;;;;;;;7.85;3.90;;;;;;;;;;4943924;28;20027;-83
2023/04/29 15:13:47;;;;;;;7.60;4.30;;;;;;;;;;4947878;29;20025;-84
2023/04/29 15:16:12;;;;;;;7.60;3.97;;;;;;;;;;4939298;29;20046;-80
2023/04/29 15:18:37;;;;;;;8.00;4.78;;;;;;;;;;4967155;28;20094;-82
2023/04/29 15:21:03;;;;;;;6.35;4.40;;;;;;;;;;4944734;29;20083;-85
2023/04/29 15:23:30;;;;;;;7.45;4.57;;;;;;;;;;4981139;28;20011;-85
2023/04/29 15:25:55;;;;;;;6.25;3.95;;;;;;;;;;4952433;29;20027;-83
2023/04/29 15:28:23;;;;;;;9.52;4.60;;;;;;;;;;4951129;28;20051;-83
2023/04/29 15:30:48;;;;;;;8.88;4.57;;;;;;;;;;4960573;28;20328;-83
2023/04/29 15:33:14;;;;;;;7.97;4.70;;;;;;;;;;4952667;29;20028;-84
2023/04/29 15:35:39;;;;;;;8.25;4.13;;;;;;;;;;4942938;28;20030;-84
2023/04/29 15:38:05;;;;;;;9.10;4.25;;;;;;;;;;4954384;28;20446;-83
2023/04/29 15:40:31;;;;;;;10.02;4.05;;;;;;;;;;4937494;28;20023;-82
2023/04/29 15:42:57;;;;;;;5.55;4.15;;;;;;;;;;4958224;29;20019;-81
2023/04/29 15:45:22;;;;;;;6.60;3.75;;;;;;;;;;4939402;28;20106;-82